createdAt,value
2023-05-22T00:01:48.944Z,100890.36
2023-05-22T00:04:22.527Z,100891.50
2023-05-22T00:06:50.729Z,100900.89
2023-05-22T00:09:17.755Z,100897.15
2023-05-22T00:11:45.308Z,100894.35
2023-05-22T00:14:15.735Z,100894.56
2023-05-22T00:16:42.508Z,100891.88
2023-05-22T00:19:12.855Z,100893.67
2023-05-22T00:21:39.734Z,100892.69
2023-05-22T00:24:06.783Z,100892.97
2023-05-22T00:26:33.624Z,100891.42
2023-05-22T00:29:00.585Z,100892.00
2023-05-22T00:31:28.451Z,100889.39
2023-05-22T00:33:55.525Z,100893.20
2023-05-22T00:36:22.442Z,100892.48
2023-05-22T00:38:49.165Z,100893.86
2023-05-22T00:41:16.110Z,100893.64
2023-05-22T00:43:45.003Z,100893.77
2023-05-22T00:46:12.237Z,100893.29
2023-05-22T00:48:39.099Z,100893.05
2023-05-22T00:51:06.457Z,100898.57
2023-05-22T00:53:33.511Z,100897.20
2023-05-22T00:56:00.649Z,100895.95
2023-05-22T00:58:27.612Z,100897.70
2023-05-22T01:00:55.053Z,100896.23
2023-05-22T01:03:25.975Z,100898.75
2023-05-22T01:05:53.958Z,100898.45
2023-05-22T01:08:21.108Z,100893.81
2023-05-22T01:10:51.533Z,100896.89
2023-05-22T01:13:18.278Z,100897.14
2023-05-22T01:15:55.371Z,100894.61
2023-05-22T01:18:29.671Z,100890.24
2023-05-22T01:21:03.680Z,100890.64
2023-05-22T01:23:42.504Z,100891.71
2023-05-22T01:26:18.764Z,100889.37
2023-05-22T01:29:01.485Z,100887.97
2023-05-22T01:31:30.583Z,100891.82
2023-05-22T01:34:00.251Z,100890.37
2023-05-22T01:36:30.712Z,100894.05
2023-05-22T01:39:00.933Z,100892.90
2023-05-22T01:41:28.796Z,100899.05
2023-05-22T01:43:56.260Z,100897.08
2023-05-22T01:46:27.175Z,100894.40
2023-05-22T01:48:54.557Z,100891.05
2023-05-22T01:51:34.097Z,100890.80
2023-05-22T01:54:07.000Z,100895.25
2023-05-22T01:56:38.834Z,100897.05
2023-05-22T01:59:25.035Z,100897.02
2023-05-22T02:01:53.617Z,100892.35
2023-05-22T02:04:22.295Z,100891.52
2023-05-22T02:06:51.702Z,100889.11
2023-05-22T02:09:20.404Z,100890.06
2023-05-22T02:11:47.788Z,100890.94
2023-05-22T02:14:15.708Z,100886.48
2023-05-22T02:16:47.260Z,100890.74
2023-05-22T02:19:14.871Z,100894.39
2023-05-22T02:21:41.866Z,100895.82
2023-05-22T02:24:08.815Z,100896.77
2023-05-22T02:26:36.795Z,100897.60
2023-05-22T02:29:03.631Z,100902.63
2023-05-22T02:31:30.522Z,100909.58
2023-05-22T02:33:57.324Z,100910.58
2023-05-22T02:36:25.890Z,100901.71
2023-05-22T02:38:52.626Z,100897.79
2023-05-22T02:41:19.365Z,100900.34
2023-05-22T02:43:46.127Z,100902.52
2023-05-22T02:46:13.019Z,100903.96
2023-05-22T02:48:40.308Z,100905.11
2023-05-22T02:51:07.250Z,100904.13
2023-05-22T02:53:35.116Z,100907.70
2023-05-22T02:56:02.676Z,100906.66
2023-05-22T02:58:29.523Z,100903.97
2023-05-22T03:00:56.664Z,100909.55
2023-05-22T03:03:29.291Z,100908.50
2023-05-22T03:05:57.923Z,100907.73
2023-05-22T03:08:27.943Z,100900.02
2023-05-22T03:10:56.220Z,100901.39
2023-05-22T03:13:23.269Z,100895.89
2023-05-22T03:15:50.441Z,100897.09
2023-05-22T03:18:17.780Z,100903.97
2023-05-22T03:20:45.238Z,100896.04
2023-05-22T03:23:12.991Z,100894.63
2023-05-22T03:25:39.841Z,100891.56
2023-05-22T03:28:06.681Z,100894.17
2023-05-22T03:30:36.301Z,100899.75
2023-05-22T03:33:11.378Z,100901.89
2023-05-22T03:35:38.778Z,100898.14
2023-05-22T03:38:05.726Z,100895.88
2023-05-22T03:40:32.465Z,100893.05
2023-05-22T03:43:00.228Z,100893.63
2023-05-22T03:45:27.307Z,100890.45
2023-05-22T03:47:54.411Z,100891.48
2023-05-22T03:50:21.380Z,100885.06
2023-05-22T03:52:48.117Z,100882.35
2023-05-22T03:55:15.869Z,100884.64
2023-05-22T03:57:42.723Z,100883.20
2023-05-22T04:00:11.501Z,100883.62
2023-05-22T04:02:44.483Z,100880.31
2023-05-22T04:05:11.572Z,100883.57
2023-05-22T04:07:38.495Z,100885.79
2023-05-22T04:10:06.034Z,100884.10
2023-05-22T04:12:33.292Z,100883.17
2023-05-22T04:15:00.044Z,100877.91
2023-05-22T04:17:33.708Z,100879.04
2023-05-22T04:20:00.713Z,100885.23
2023-05-22T04:22:30.384Z,100885.20
2023-05-22T04:24:57.650Z,100882.30
2023-05-22T04:27:26.017Z,100883.83
2023-05-22T04:29:53.297Z,100881.17
2023-05-22T04:32:21.569Z,100882.64
2023-05-22T04:34:50.530Z,100883.71
2023-05-22T04:37:19.222Z,100888.04
2023-05-22T04:39:46.368Z,100892.02
2023-05-22T04:42:14.135Z,100889.77
2023-05-22T04:44:41.485Z,100885.05
2023-05-22T04:47:13.999Z,100888.80
2023-05-22T04:49:45.215Z,100890.83
2023-05-22T04:52:12.049Z,100892.42
2023-05-22T04:54:38.911Z,100896.27
2023-05-22T04:57:05.840Z,100902.82
2023-05-22T04:59:39.595Z,100902.52
2023-05-22T05:02:06.789Z,100907.49
2023-05-22T05:04:33.635Z,100910.42
2023-05-22T05:07:02.119Z,100905.39
2023-05-22T05:09:28.954Z,100914.00
2023-05-22T05:11:55.800Z,100912.19
2023-05-22T05:14:22.748Z,100915.16
2023-05-22T05:16:54.330Z,100913.83
2023-05-22T05:19:21.585Z,100910.41
2023-05-22T05:21:51.972Z,100908.00
2023-05-22T05:24:19.126Z,100903.24
2023-05-22T05:26:46.881Z,100908.96
2023-05-22T05:29:15.467Z,100911.11
2023-05-22T05:31:49.500Z,100908.84
2023-05-22T05:34:51.956Z,100907.04
2023-05-22T05:37:43.172Z,100899.48
2023-05-22T05:40:13.924Z,100897.50
2023-05-22T05:42:45.992Z,100896.52
2023-05-22T05:45:15.375Z,100894.00
2023-05-22T05:47:42.960Z,100898.65
2023-05-22T05:50:10.831Z,100901.35
2023-05-22T05:52:39.072Z,100901.39
2023-05-22T05:55:11.146Z,100899.08
2023-05-22T05:57:38.049Z,100902.98
2023-05-22T06:00:10.116Z,100899.65
2023-05-22T06:02:43.286Z,100895.91
2023-05-22T06:05:22.845Z,100896.65
2023-05-22T06:07:52.382Z,100893.92
2023-05-22T06:10:19.278Z,100892.05
2023-05-22T06:13:00.361Z,100892.50
2023-05-22T06:15:29.579Z,100892.46
2023-05-22T06:17:57.436Z,100896.75
2023-05-22T06:20:25.751Z,100895.38
2023-05-22T06:22:52.601Z,100896.11
2023-05-22T06:25:20.153Z,100902.80
2023-05-22T06:27:47.711Z,100902.77
2023-05-22T06:30:22.433Z,100895.95
2023-05-22T06:32:56.816Z,100895.47
2023-05-22T06:35:25.126Z,100893.55
2023-05-22T06:37:52.081Z,100891.58
2023-05-22T06:40:19.022Z,100889.42
2023-05-22T06:42:52.003Z,100890.80
2023-05-22T06:45:38.039Z,100892.65
2023-05-22T06:48:24.941Z,100892.59
2023-05-22T06:51:21.342Z,100893.58
2023-05-22T06:53:51.053Z,100893.45
2023-05-22T06:56:22.402Z,100893.36
2023-05-22T06:58:53.440Z,100895.00
2023-05-22T07:01:21.331Z,100888.09
2023-05-22T07:04:04.655Z,100886.59
2023-05-22T07:06:41.132Z,100883.73
2023-05-22T07:09:08.683Z,100883.79
2023-05-22T07:11:35.520Z,100886.45
2023-05-22T07:14:02.653Z,100884.21
2023-05-22T07:16:30.848Z,100885.14
2023-05-22T07:18:58.024Z,100877.36
2023-05-22T07:21:25.657Z,100880.64
2023-05-22T07:23:52.580Z,100884.02
2023-05-22T07:26:19.336Z,100882.91
2023-05-22T07:28:51.997Z,100885.64
2023-05-22T07:31:18.767Z,100882.78
2023-05-22T07:33:46.006Z,100883.05
2023-05-22T07:36:12.937Z,100884.80
2023-05-22T07:38:41.416Z,100882.19
2023-05-22T07:41:08.470Z,100882.73
2023-05-22T07:43:35.772Z,100883.09
2023-05-22T07:46:05.570Z,100879.67
2023-05-22T07:48:36.635Z,100871.63
2023-05-22T07:51:03.663Z,100870.77
2023-05-22T07:53:31.294Z,100865.98
2023-05-22T07:55:58.785Z,100865.80
2023-05-22T07:58:26.503Z,100864.60
2023-05-22T08:00:53.979Z,100862.46
2023-05-22T08:03:23.871Z,100862.87
2023-05-22T08:05:51.148Z,100860.64
2023-05-22T08:08:17.959Z,100858.30
2023-05-22T08:11:01.899Z,100858.15
2023-05-22T08:13:30.800Z,100856.46
2023-05-22T08:16:00.349Z,100854.89
2023-05-22T08:18:28.574Z,100848.88
2023-05-22T08:20:55.435Z,100852.27
2023-05-22T08:23:22.174Z,100852.27
2023-05-22T08:25:49.915Z,100848.09
2023-05-22T08:28:16.881Z,100848.39
2023-05-22T08:30:44.130Z,100847.05
2023-05-22T08:33:11.484Z,100845.59
2023-05-22T08:35:38.203Z,100842.48
2023-05-22T08:38:04.971Z,100841.23
2023-05-22T08:40:39.762Z,100835.47
2023-05-22T08:43:06.848Z,100833.04
2023-05-22T08:45:34.030Z,100837.41
2023-05-22T08:48:05.630Z,100837.24
2023-05-22T08:50:34.319Z,100836.98
2023-05-22T08:53:04.327Z,100832.13
2023-05-22T08:55:31.085Z,100834.30
2023-05-22T08:57:58.527Z,100828.76
2023-05-22T09:00:25.378Z,100826.29
2023-05-22T09:02:52.204Z,100822.81
2023-05-22T09:05:19.387Z,100819.37
2023-05-22T09:07:48.458Z,100819.42
2023-05-22T09:10:17.780Z,100808.86
2023-05-22T09:13:03.846Z,100810.02
2023-05-22T09:15:32.027Z,100807.91
2023-05-22T09:17:59.202Z,100803.02
2023-05-22T09:20:26.529Z,100799.72
2023-05-22T09:22:53.477Z,100793.48
2023-05-22T09:25:21.160Z,100793.36
2023-05-22T09:27:48.384Z,100799.89
2023-05-22T09:30:16.664Z,100792.70
2023-05-22T09:32:44.083Z,100796.02
2023-05-22T09:35:11.174Z,100796.83
2023-05-22T09:37:37.963Z,100797.73
2023-05-22T09:40:13.330Z,100792.36
2023-05-22T09:42:44.008Z,100789.20
2023-05-22T09:45:11.252Z,100791.17
2023-05-22T09:47:38.428Z,100788.95
2023-05-22T09:50:06.905Z,100784.77
2023-05-22T09:52:34.846Z,100784.75
2023-05-22T09:55:06.292Z,100782.88
2023-05-22T09:57:36.920Z,100780.69
2023-05-22T10:00:08.788Z,100772.61
2023-05-22T10:02:41.367Z,100768.38
2023-05-22T10:05:09.084Z,100767.42
2023-05-22T10:07:39.252Z,100770.39
2023-05-22T10:10:11.512Z,100765.27
2023-05-22T10:12:43.164Z,100764.33
2023-05-22T10:15:10.828Z,100763.94
2023-05-22T10:17:37.881Z,100764.37
2023-05-22T10:20:07.380Z,100762.05
2023-05-22T10:22:36.365Z,100765.14
2023-05-22T10:25:03.419Z,100761.02
2023-05-22T10:27:30.576Z,100761.75
2023-05-22T10:30:12.868Z,100758.19
2023-05-22T10:32:44.779Z,100755.40
2023-05-22T10:35:20.988Z,100758.33
2023-05-22T10:38:14.173Z,100756.58
2023-05-22T10:40:41.716Z,100756.23
2023-05-22T10:43:08.554Z,100752.73
2023-05-22T10:45:36.153Z,100745.71
2023-05-22T10:48:06.911Z,100735.61
2023-05-22T10:50:34.509Z,100737.42
2023-05-22T10:53:23.157Z,100737.75
2023-05-22T10:55:50.826Z,100734.09
2023-05-22T10:58:18.486Z,100731.30
2023-05-22T11:00:45.238Z,100729.80
2023-05-22T11:03:18.066Z,100728.02
2023-05-22T11:05:51.718Z,100725.48
2023-05-22T11:08:27.735Z,100734.00
2023-05-22T11:10:55.693Z,100731.81
2023-05-22T11:13:28.152Z,100725.85
2023-05-22T11:15:58.409Z,100725.87
2023-05-22T11:18:28.285Z,100721.23
2023-05-22T11:20:55.597Z,100715.02
2023-05-22T11:23:24.800Z,100713.53
2023-05-22T11:25:51.646Z,100707.98
2023-05-22T11:28:19.100Z,100705.11
2023-05-22T11:30:46.667Z,100699.25
2023-05-22T11:33:14.110Z,100692.90
2023-05-22T11:35:42.901Z,100691.98
2023-05-22T11:38:10.036Z,100687.96
2023-05-22T11:40:36.959Z,100685.75
2023-05-22T11:43:04.171Z,100688.17
2023-05-22T11:45:30.870Z,100693.43
2023-05-22T11:47:57.821Z,100692.30
2023-05-22T11:50:40.280Z,100693.10
2023-05-22T11:53:09.170Z,100692.52
2023-05-22T11:55:35.996Z,100687.25
2023-05-22T11:58:02.778Z,100685.81
2023-05-22T12:00:33.847Z,100683.35
2023-05-22T12:03:00.886Z,100682.70
2023-05-22T12:05:27.790Z,100676.23
2023-05-22T12:07:54.716Z,100670.28
2023-05-22T12:10:21.520Z,100665.44
2023-05-22T12:12:48.404Z,100674.08
2023-05-22T12:15:18.684Z,100666.16
2023-05-22T12:17:45.457Z,100671.05
2023-05-22T12:20:14.114Z,100671.36
2023-05-22T12:22:42.591Z,100668.62
2023-05-22T12:25:13.744Z,100664.25
2023-05-22T12:27:40.582Z,100660.86
2023-05-22T12:30:12.456Z,100658.50
2023-05-22T12:32:39.881Z,100656.52
2023-05-22T12:35:07.191Z,100651.98
2023-05-22T12:37:35.349Z,100652.30
2023-05-22T12:40:03.391Z,100645.16
2023-05-22T12:42:30.246Z,100644.41
2023-05-22T12:44:57.723Z,100641.52
2023-05-22T12:47:24.943Z,100635.87
2023-05-22T12:49:52.000Z,100631.39
2023-05-22T12:52:19.039Z,100626.05
2023-05-22T12:54:46.116Z,100621.48
2023-05-22T12:57:13.204Z,100620.44
2023-05-22T12:59:40.062Z,100622.30
2023-05-22T13:02:07.018Z,100617.84
2023-05-22T13:04:36.348Z,100612.35
2023-05-22T13:07:03.673Z,100610.23
2023-05-22T13:09:30.552Z,100613.68
2023-05-22T13:11:57.500Z,100612.23
2023-05-22T13:14:24.331Z,100609.86
2023-05-22T13:16:51.023Z,100606.77
2023-05-22T13:19:17.897Z,100607.69
2023-05-22T13:21:44.727Z,100608.67
2023-05-22T13:24:11.339Z,100607.91
2023-05-22T13:26:37.998Z,100602.38
2023-05-22T13:29:04.744Z,100603.30
2023-05-22T13:31:36.801Z,100597.58
2023-05-22T13:34:04.174Z,100599.73
2023-05-22T13:36:31.085Z,100597.38
2023-05-22T13:38:58.249Z,100596.84
2023-05-22T13:41:25.068Z,100594.76
2023-05-22T13:43:51.837Z,100596.63
2023-05-22T13:46:20.424Z,100595.98
2023-05-22T13:48:47.082Z,100591.13
2023-05-22T13:51:13.894Z,100597.17
2023-05-22T13:53:40.744Z,100594.42
2023-05-22T13:56:07.658Z,100591.20
2023-05-22T13:58:34.377Z,100592.83
2023-05-22T14:01:01.417Z,100592.20
2023-05-22T14:03:28.159Z,100591.16
2023-05-22T14:05:54.949Z,100590.53
2023-05-22T14:08:21.803Z,100593.05
2023-05-22T14:10:48.648Z,100585.23
2023-05-22T14:13:15.477Z,100584.83
2023-05-22T14:15:42.828Z,100585.80
2023-05-22T14:18:10.821Z,100581.48
2023-05-22T14:20:37.588Z,100580.30
2023-05-22T14:23:04.372Z,100573.89
2023-05-22T14:25:31.117Z,100570.87
2023-05-22T14:27:57.865Z,100573.20
2023-05-22T14:30:24.698Z,100568.21
2023-05-22T14:32:51.740Z,100566.65
2023-05-22T14:35:18.698Z,100561.80
2023-05-22T14:37:45.543Z,100562.69
2023-05-22T14:40:12.478Z,100559.66
2023-05-22T14:42:39.218Z,100557.60
2023-05-22T14:45:06.376Z,100557.77
2023-05-22T14:47:33.251Z,100555.26
2023-05-22T14:50:14.849Z,100558.23
2023-05-22T14:52:45.651Z,100553.24
2023-05-22T14:55:12.488Z,100561.03
2023-05-22T14:57:39.749Z,100553.94
2023-05-22T15:00:09.196Z,100555.38
2023-05-22T15:02:36.311Z,100554.63
2023-05-22T15:05:04.220Z,100553.70
2023-05-22T15:07:42.934Z,100557.02
2023-05-22T15:10:11.485Z,100555.87
2023-05-22T15:12:38.740Z,100552.73
2023-05-22T15:15:05.964Z,100550.53
2023-05-22T15:17:32.838Z,100547.54
2023-05-22T15:20:00.188Z,100548.56
2023-05-22T15:22:26.997Z,100544.34
2023-05-22T15:25:04.895Z,100546.38
2023-05-22T15:27:32.561Z,100544.96
2023-05-22T15:29:59.298Z,100547.89
2023-05-22T15:32:26.180Z,100547.20
2023-05-22T15:34:52.998Z,100545.05
2023-05-22T15:37:19.724Z,100543.95
2023-05-22T15:39:46.563Z,100548.92
2023-05-22T15:42:13.519Z,100543.59
2023-05-22T15:44:40.579Z,100541.23
2023-05-22T15:47:07.400Z,100538.81
2023-05-22T15:49:34.146Z,100539.99
2023-05-22T15:52:02.416Z,100540.29
2023-05-22T15:54:29.271Z,100538.88
2023-05-22T15:56:56.303Z,100538.44
2023-05-22T15:59:23.250Z,100535.60
2023-05-22T16:01:50.485Z,100537.61
2023-05-22T16:04:17.346Z,100536.30
2023-05-22T16:06:44.098Z,100539.98
2023-05-22T16:09:10.829Z,100535.38
2023-05-22T16:11:37.779Z,100538.09
2023-05-22T16:14:04.607Z,100535.49
2023-05-22T16:16:31.746Z,100535.19
2023-05-22T16:18:58.764Z,100536.21
2023-05-22T16:21:25.752Z,100536.65
2023-05-22T16:23:52.641Z,100535.25
2023-05-22T16:26:19.538Z,100537.60
2023-05-22T16:28:46.279Z,100536.55
2023-05-22T16:31:16.446Z,100538.30
2023-05-22T16:33:45.291Z,100536.55
2023-05-22T16:36:12.145Z,100541.91
2023-05-22T16:38:39.079Z,100543.65
2023-05-22T16:41:05.928Z,100544.19
2023-05-22T16:43:32.675Z,100547.92
2023-05-22T16:45:59.620Z,100543.63
2023-05-22T16:48:26.511Z,100545.28
2023-05-22T16:50:53.493Z,100543.98
2023-05-22T16:53:20.343Z,100541.83
2023-05-22T16:55:47.295Z,100542.77
2023-05-22T16:58:14.444Z,100540.88
2023-05-22T17:00:41.437Z,100540.71
2023-05-22T17:03:09.302Z,100544.05
2023-05-22T17:05:37.760Z,100545.07
2023-05-22T17:08:05.174Z,100547.69
2023-05-22T17:10:32.020Z,100551.10
2023-05-22T17:12:59.074Z,100552.65
2023-05-22T17:15:26.111Z,100552.34
2023-05-22T17:17:52.928Z,100553.24
2023-05-22T17:20:21.744Z,100552.08
2023-05-22T17:22:48.788Z,100551.90
2023-05-22T17:25:15.737Z,100553.73
2023-05-22T17:27:42.587Z,100551.45
2023-05-22T17:30:09.728Z,100552.70
2023-05-22T17:32:36.781Z,100553.06
2023-05-22T17:35:05.869Z,100555.88
2023-05-22T17:37:32.913Z,100556.58
2023-05-22T17:39:59.783Z,100557.56
2023-05-22T17:42:26.606Z,100557.48
2023-05-22T17:44:53.442Z,100558.50
2023-05-22T17:47:23.698Z,100559.17
2023-05-22T17:49:50.645Z,100560.58
2023-05-22T17:52:17.763Z,100563.65
2023-05-22T17:54:45.097Z,100564.48
2023-05-22T17:57:12.565Z,100564.33
2023-05-22T17:59:40.555Z,100564.74
2023-05-22T18:02:08.521Z,100563.44
2023-05-22T18:04:36.920Z,100565.70
2023-05-22T18:07:03.701Z,100563.14
2023-05-22T18:09:30.564Z,100566.85
2023-05-22T18:11:58.674Z,100572.00
2023-05-22T18:14:25.445Z,100573.09
2023-05-22T18:16:52.268Z,100578.48
2023-05-22T18:19:18.994Z,100581.94
2023-05-22T18:21:45.798Z,100586.90
2023-05-22T18:24:13.277Z,100589.20
2023-05-22T18:26:40.712Z,100593.40
2023-05-22T18:29:07.457Z,100599.92
2023-05-22T18:31:34.275Z,100607.11
2023-05-22T18:34:01.143Z,100613.13
2023-05-22T18:36:27.876Z,100611.11
2023-05-22T18:38:55.337Z,100607.58
2023-05-22T18:41:22.087Z,100608.11
2023-05-22T18:43:48.879Z,100613.58
2023-05-22T18:46:15.569Z,100621.19
2023-05-22T18:48:42.511Z,100624.27
2023-05-22T18:51:09.450Z,100620.42
2023-05-22T18:53:36.293Z,100619.50
2023-05-22T18:56:03.277Z,100619.56
2023-05-22T18:58:29.927Z,100617.35
2023-05-22T19:00:56.612Z,100619.84
2023-05-22T19:03:23.877Z,100621.77
2023-05-22T19:05:50.861Z,100622.90
2023-05-22T19:08:17.732Z,100619.77
2023-05-22T19:10:44.455Z,100616.41
2023-05-22T19:13:11.065Z,100621.70
2023-05-22T19:15:37.781Z,100620.98
2023-05-22T19:18:04.688Z,100626.81
2023-05-22T19:20:31.654Z,100630.54
2023-05-22T19:22:58.498Z,100625.88
2023-05-22T19:25:25.369Z,100625.02
2023-05-22T19:27:52.281Z,100624.71
2023-05-22T19:30:21.454Z,100625.89
2023-05-22T19:32:55.052Z,100623.48
2023-05-22T19:35:21.843Z,100620.23
2023-05-22T19:37:48.990Z,100625.04
2023-05-22T19:40:15.774Z,100629.98
2023-05-22T19:42:42.661Z,100639.74
2023-05-22T19:45:09.706Z,100647.07
2023-05-22T19:47:36.607Z,100647.25
2023-05-22T19:50:03.608Z,100647.81
2023-05-22T19:52:30.378Z,100641.44
2023-05-22T19:54:57.175Z,100641.79
2023-05-22T19:57:23.922Z,100644.21
2023-05-22T19:59:50.978Z,100647.56
2023-05-22T20:02:17.691Z,100646.09
2023-05-22T20:04:47.750Z,100641.59
2023-05-22T20:07:14.970Z,100644.34
2023-05-22T20:09:41.771Z,100638.15
2023-05-22T20:12:09.883Z,100641.96
2023-05-22T20:14:37.268Z,100641.79
2023-05-22T20:17:04.282Z,100639.16
2023-05-22T20:19:31.981Z,100636.66
2023-05-22T20:21:59.098Z,100638.80
2023-05-22T20:24:25.947Z,100640.93
2023-05-22T20:26:53.087Z,100641.41
2023-05-22T20:29:20.237Z,100646.52
2023-05-22T20:31:47.672Z,100644.91
2023-05-22T20:34:15.049Z,100646.17
2023-05-22T20:36:46.190Z,100647.59
2023-05-22T20:39:12.928Z,100649.41
2023-05-22T20:41:39.780Z,100650.20
2023-05-22T20:44:07.428Z,100653.87
2023-05-22T20:46:34.457Z,100653.40
2023-05-22T20:49:02.967Z,100651.77
2023-05-22T20:51:31.975Z,100654.06
2023-05-22T20:53:59.262Z,100651.16
2023-05-22T20:56:26.427Z,100649.91
2023-05-22T20:58:53.679Z,100649.45
2023-05-22T21:01:20.465Z,100652.96
2023-05-22T21:03:47.443Z,100652.75
2023-05-22T21:06:14.560Z,100652.10
2023-05-22T21:08:41.385Z,100649.95
2023-05-22T21:11:08.224Z,100647.44
2023-05-22T21:13:35.175Z,100651.19
2023-05-22T21:16:02.035Z,100647.13
2023-05-22T21:18:29.372Z,100649.80
2023-05-22T21:20:56.109Z,100651.07
2023-05-22T21:23:24.490Z,100651.95
2023-05-22T21:25:51.639Z,100649.96
2023-05-22T21:28:18.478Z,100656.61
2023-05-22T21:30:45.428Z,100656.90
2023-05-22T21:33:12.173Z,100654.81
2023-05-22T21:35:39.113Z,100657.63
2023-05-22T21:38:05.954Z,100657.95
2023-05-22T21:40:32.639Z,100658.27
2023-05-22T21:42:59.432Z,100655.71
2023-05-22T21:45:26.185Z,100653.52
2023-05-22T21:47:52.867Z,100654.50
2023-05-22T21:50:19.607Z,100657.81
2023-05-22T21:52:46.241Z,100658.76
2023-05-22T21:55:13.033Z,100661.58
2023-05-22T21:57:39.693Z,100659.14
2023-05-22T22:00:07.442Z,100657.50
2023-05-22T22:02:34.158Z,100654.67
2023-05-22T22:05:01.226Z,100653.16
2023-05-22T22:07:28.058Z,100651.59
2023-05-22T22:09:54.796Z,100656.09
2023-05-22T22:12:21.535Z,100652.70
2023-05-22T22:14:48.478Z,100650.42
2023-05-22T22:17:16.452Z,100646.04
2023-05-22T22:19:43.801Z,100646.41
2023-05-22T22:22:12.183Z,100640.28
2023-05-22T22:24:39.022Z,100644.73
2023-05-22T22:27:06.071Z,100650.67
2023-05-22T22:29:32.916Z,100651.45
2023-05-22T22:31:59.711Z,100655.80
2023-05-22T22:34:27.418Z,100657.30
2023-05-22T22:36:54.260Z,100656.33
2023-05-22T22:39:21.517Z,100655.90
2023-05-22T22:41:48.268Z,100651.17
2023-05-22T22:44:14.991Z,100651.51
2023-05-22T22:46:42.424Z,100646.45
2023-05-22T22:49:09.630Z,100649.05
2023-05-22T22:51:37.156Z,100651.29
2023-05-22T22:54:04.422Z,100648.18
2023-05-22T22:56:31.269Z,100646.12
2023-05-22T22:58:58.096Z,100639.13
2023-05-22T23:01:25.082Z,100640.42
2023-05-22T23:03:52.075Z,100639.86
2023-05-22T23:06:19.029Z,100635.52
2023-05-22T23:08:45.875Z,100630.59
2023-05-22T23:11:12.614Z,100627.20
2023-05-22T23:13:40.716Z,100626.23
2023-05-22T23:16:07.565Z,100624.91
2023-05-22T23:18:34.877Z,100624.98
2023-05-22T23:21:01.724Z,100621.55
2023-05-22T23:23:28.665Z,100622.04
2023-05-22T23:25:57.351Z,100621.30
2023-05-22T23:28:25.627Z,100615.49
2023-05-22T23:30:52.371Z,100616.14
2023-05-22T23:33:19.218Z,100618.44
2023-05-22T23:35:46.055Z,100623.11
2023-05-22T23:38:12.833Z,100622.83
2023-05-22T23:40:39.692Z,100623.73
2023-05-22T23:43:06.678Z,100622.50
2023-05-22T23:45:33.634Z,100622.96
2023-05-22T23:48:00.425Z,100625.23
2023-05-22T23:50:27.206Z,100626.52
2023-05-22T23:52:54.050Z,100620.98
2023-05-22T23:55:21.516Z,100617.62
2023-05-22T23:57:48.452Z,100616.20
